sensor_id;sensor_type;location;lat;lon;timestamp;P1;durP1;ratioP1;P2;durP2;ratioP2
75506;SDS011;64086;43.220;27.878;2023-03-03T00:01:39;11.40;;;7.40;;
75506;SDS011;64086;43.220;27.878;2023-03-03T00:04:05;12.05;;;7.10;;
75506;SDS011;64086;43.220;27.878;2023-03-03T00:06:31;10.65;;;7.05;;
75506;SDS011;64086;43.220;27.878;2023-03-03T00:08:56;11.98;;;7.80;;
75506;SDS011;64086;43.220;27.878;2023-03-03T00:11:22;13.07;;;7.38;;
75506;SDS011;64086;43.220;27.878;2023-03-03T00:13:48;9.75;;;6.57;;
75506;SDS011;64086;43.220;27.878;2023-03-03T00:18:51;10.52;;;7.43;;
75506;SDS011;64086;43.220;27.878;2023-03-03T00:21:30;11.25;;;7.43;;
75506;SDS011;64086;43.220;27.878;2023-03-03T00:24:00;10.82;;;7.20;;
75506;SDS011;64086;43.220;27.878;2023-03-03T00:26:37;9.70;;;6.97;;
75506;SDS011;64086;43.220;27.878;2023-03-03T00:29:49;8.73;;;6.35;;
75506;SDS011;64086;43.220;27.878;2023-03-03T00:34:48;10.48;;;6.50;;
75506;SDS011;64086;43.220;27.878;2023-03-03T00:40:45;10.07;;;6.82;;
75506;SDS011;64086;43.220;27.878;2023-03-03T00:42:46;10.70;;;6.95;;
75506;SDS011;64086;43.220;27.878;2023-03-03T00:47:49;8.52;;;6.00;;
75506;SDS011;64086;43.220;27.878;2023-03-03T00:52:57;11.55;;;7.00;;
75506;SDS011;64086;43.220;27.878;2023-03-03T00:55:24;10.27;;;6.70;;
75506;SDS011;64086;43.220;27.878;2023-03-03T00:57:49;10.68;;;6.47;;
75506;SDS011;64086;43.220;27.878;2023-03-03T01:00:15;10.07;;;6.22;;
75506;SDS011;64086;43.220;27.878;2023-03-03T01:02:40;9.70;;;5.78;;
75506;SDS011;64086;43.220;27.878;2023-03-03T01:05:06;9.32;;;6.72;;
75506;SDS011;64086;43.220;27.878;2023-03-03T01:07:32;12.45;;;6.82;;
75506;SDS011;64086;43.220;27.878;2023-03-03T01:09:57;9.23;;;6.10;;
75506;SDS011;64086;43.220;27.878;2023-03-03T01:12:23;9.85;;;6.57;;
75506;SDS011;64086;43.220;27.878;2023-03-03T01:14:48;9.30;;;6.40;;
75506;SDS011;64086;43.220;27.878;2023-03-03T01:17:17;9.70;;;6.60;;
75506;SDS011;64086;43.220;27.878;2023-03-03T01:19:42;9.55;;;6.57;;
75506;SDS011;64086;43.220;27.878;2023-03-03T01:22:08;9.60;;;6.13;;
75506;SDS011;64086;43.220;27.878;2023-03-03T01:24:33;9.55;;;5.90;;
75506;SDS011;64086;43.220;27.878;2023-03-03T01:26:58;8.60;;;5.93;;
75506;SDS011;64086;43.220;27.878;2023-03-03T01:29:24;9.32;;;5.97;;
75506;SDS011;64086;43.220;27.878;2023-03-03T01:31:49;9.23;;;5.80;;
75506;SDS011;64086;43.220;27.878;2023-03-03T01:34:15;11.05;;;6.15;;
75506;SDS011;64086;43.220;27.878;2023-03-03T01:36:40;9.18;;;5.57;;
75506;SDS011;64086;43.220;27.878;2023-03-03T01:39:05;10.02;;;6.78;;
75506;SDS011;64086;43.220;27.878;2023-03-03T01:41:31;8.30;;;5.82;;
75506;SDS011;64086;43.220;27.878;2023-03-03T01:43:57;8.90;;;6.22;;
75506;SDS011;64086;43.220;27.878;2023-03-03T01:49:18;10.25;;;6.20;;
75506;SDS011;64086;43.220;27.878;2023-03-03T01:51:57;11.30;;;7.28;;
75506;SDS011;64086;43.220;27.878;2023-03-03T01:54:29;11.65;;;7.00;;
75506;SDS011;64086;43.220;27.878;2023-03-03T01:56:59;12.27;;;7.00;;
75506;SDS011;64086;43.220;27.878;2023-03-03T01:59:28;10.30;;;6.97;;
75506;SDS011;64086;43.220;27.878;2023-03-03T02:01:56;11.18;;;6.63;;
75506;SDS011;64086;43.220;27.878;2023-03-03T02:04:21;10.10;;;6.65;;
75506;SDS011;64086;43.220;27.878;2023-03-03T02:06:49;9.70;;;6.32;;
75506;SDS011;64086;43.220;27.878;2023-03-03T02:12:15;10.77;;;7.28;;
75506;SDS011;64086;43.220;27.878;2023-03-03T02:14:43;11.45;;;7.10;;
75506;SDS011;64086;43.220;27.878;2023-03-03T02:17:08;10.07;;;6.88;;
75506;SDS011;64086;43.220;27.878;2023-03-03T02:19:37;9.27;;;6.57;;
75506;SDS011;64086;43.220;27.878;2023-03-03T02:22:05;9.25;;;7.18;;
75506;SDS011;64086;43.220;27.878;2023-03-03T02:24:32;11.45;;;7.10;;
75506;SDS011;64086;43.220;27.878;2023-03-03T02:27:02;9.35;;;6.78;;
75506;SDS011;64086;43.220;27.878;2023-03-03T02:29:27;12.60;;;7.85;;
75506;SDS011;64086;43.220;27.878;2023-03-03T02:31:53;11.45;;;7.40;;
75506;SDS011;64086;43.220;27.878;2023-03-03T02:34:18;12.23;;;7.30;;
75506;SDS011;64086;43.220;27.878;2023-03-03T02:36:44;11.20;;;7.28;;
75506;SDS011;64086;43.220;27.878;2023-03-03T02:39:10;10.38;;;7.35;;
75506;SDS011;64086;43.220;27.878;2023-03-03T02:41:48;12.77;;;8.60;;
75506;SDS011;64086;43.220;27.878;2023-03-03T02:44:20;11.00;;;8.23;;
75506;SDS011;64086;43.220;27.878;2023-03-03T02:46:51;12.13;;;7.50;;
75506;SDS011;64086;43.220;27.878;2023-03-03T02:49:18;12.38;;;7.20;;
75506;SDS011;64086;43.220;27.878;2023-03-03T02:51:45;11.27;;;7.25;;
75506;SDS011;64086;43.220;27.878;2023-03-03T02:54:12;11.02;;;6.97;;
75506;SDS011;64086;43.220;27.878;2023-03-03T02:56:38;9.68;;;7.55;;
75506;SDS011;64086;43.220;27.878;2023-03-03T02:59:03;11.30;;;7.32;;
75506;SDS011;64086;43.220;27.878;2023-03-03T03:01:29;10.35;;;7.45;;
75506;SDS011;64086;43.220;27.878;2023-03-03T03:03:56;10.43;;;7.00;;
75506;SDS011;64086;43.220;27.878;2023-03-03T03:06:22;10.85;;;7.13;;
75506;SDS011;64086;43.220;27.878;2023-03-03T03:08:47;11.40;;;7.60;;
75506;SDS011;64086;43.220;27.878;2023-03-03T03:11:13;10.88;;;7.15;;
75506;SDS011;64086;43.220;27.878;2023-03-03T03:13:38;12.57;;;7.30;;
75506;SDS011;64086;43.220;27.878;2023-03-03T03:16:04;11.02;;;7.22;;
75506;SDS011;64086;43.220;27.878;2023-03-03T03:18:29;10.48;;;7.22;;
75506;SDS011;64086;43.220;27.878;2023-03-03T03:20:55;11.85;;;7.93;;
75506;SDS011;64086;43.220;27.878;2023-03-03T03:23:20;11.18;;;7.05;;
75506;SDS011;64086;43.220;27.878;2023-03-03T03:25:46;13.00;;;7.93;;
75506;SDS011;64086;43.220;27.878;2023-03-03T03:28:12;12.45;;;7.63;;
75506;SDS011;64086;43.220;27.878;2023-03-03T03:30:42;11.07;;;7.47;;
75506;SDS011;64086;43.220;27.878;2023-03-03T03:33:09;11.25;;;7.32;;
75506;SDS011;64086;43.220;27.878;2023-03-03T03:35:35;12.40;;;7.72;;
75506;SDS011;64086;43.220;27.878;2023-03-03T03:38:01;12.57;;;6.88;;
75506;SDS011;64086;43.220;27.878;2023-03-03T03:40:27;9.90;;;6.82;;
75506;SDS011;64086;43.220;27.878;2023-03-03T03:42:52;11.05;;;7.82;;
75506;SDS011;64086;43.220;27.878;2023-03-03T03:45:19;12.48;;;7.45;;
75506;SDS011;64086;43.220;27.878;2023-03-03T03:47:44;9.98;;;7.43;;
75506;SDS011;64086;43.220;27.878;2023-03-03T03:50:10;13.30;;;8.45;;
75506;SDS011;64086;43.220;27.878;2023-03-03T03:52:36;10.57;;;7.28;;
75506;SDS011;64086;43.220;27.878;2023-03-03T03:55:02;11.68;;;8.15;;
75506;SDS011;64086;43.220;27.878;2023-03-03T03:57:28;11.63;;;7.88;;
75506;SDS011;64086;43.220;27.878;2023-03-03T03:59:53;11.15;;;7.30;;
75506;SDS011;64086;43.220;27.878;2023-03-03T04:02:19;11.73;;;6.97;;
75506;SDS011;64086;43.220;27.878;2023-03-03T04:04:44;10.80;;;7.82;;
75506;SDS011;64086;43.220;27.878;2023-03-03T04:07:09;9.88;;;7.88;;
75506;SDS011;64086;43.220;27.878;2023-03-03T04:09:35;9.90;;;7.57;;
75506;SDS011;64086;43.220;27.878;2023-03-03T04:12:01;12.43;;;7.82;;
75506;SDS011;64086;43.220;27.878;2023-03-03T04:14:26;9.32;;;6.82;;
75506;SDS011;64086;43.220;27.878;2023-03-03T04:16:51;12.07;;;7.88;;
75506;SDS011;64086;43.220;27.878;2023-03-03T04:19:17;11.88;;;7.85;;
75506;SDS011;64086;43.220;27.878;2023-03-03T04:21:42;13.13;;;7.78;;
75506;SDS011;64086;43.220;27.878;2023-03-03T04:24:08;11.40;;;8.38;;
75506;SDS011;64086;43.220;27.878;2023-03-03T04:26:33;13.68;;;8.30;;
75506;SDS011;64086;43.220;27.878;2023-03-03T04:28:59;12.35;;;8.20;;
75506;SDS011;64086;43.220;27.878;2023-03-03T04:31:25;11.52;;;7.43;;
75506;SDS011;64086;43.220;27.878;2023-03-03T04:33:51;11.82;;;8.55;;
75506;SDS011;64086;43.220;27.878;2023-03-03T04:36:17;12.85;;;7.63;;
75506;SDS011;64086;43.220;27.878;2023-03-03T04:38:43;13.18;;;7.82;;
75506;SDS011;64086;43.220;27.878;2023-03-03T04:41:09;12.05;;;8.68;;
75506;SDS011;64086;43.220;27.878;2023-03-03T04:43:34;12.75;;;8.32;;
75506;SDS011;64086;43.220;27.878;2023-03-03T04:46:00;11.73;;;8.23;;
75506;SDS011;64086;43.220;27.878;2023-03-03T04:48:25;12.63;;;8.70;;
75506;SDS011;64086;43.220;27.878;2023-03-03T04:50:51;13.45;;;9.25;;
75506;SDS011;64086;43.220;27.878;2023-03-03T04:53:17;12.10;;;8.73;;
75506;SDS011;64086;43.220;27.878;2023-03-03T04:55:42;13.30;;;8.15;;
75506;SDS011;64086;43.220;27.878;2023-03-03T04:58:08;11.20;;;7.97;;
75506;SDS011;64086;43.220;27.878;2023-03-03T05:00:34;12.70;;;8.52;;
75506;SDS011;64086;43.220;27.878;2023-03-03T05:02:59;12.25;;;8.57;;
75506;SDS011;64086;43.220;27.878;2023-03-03T05:05:25;12.63;;;8.80;;
75506;SDS011;64086;43.220;27.878;2023-03-03T05:07:51;13.73;;;9.32;;
75506;SDS011;64086;43.220;27.878;2023-03-03T05:10:16;13.05;;;8.43;;
75506;SDS011;64086;43.220;27.878;2023-03-03T05:12:42;12.27;;;8.52;;
75506;SDS011;64086;43.220;27.878;2023-03-03T05:15:08;12.20;;;8.88;;
75506;SDS011;64086;43.220;27.878;2023-03-03T05:17:34;13.32;;;9.07;;
75506;SDS011;64086;43.220;27.878;2023-03-03T05:19:59;11.68;;;7.97;;
75506;SDS011;64086;43.220;27.878;2023-03-03T05:22:25;12.27;;;8.10;;
75506;SDS011;64086;43.220;27.878;2023-03-03T05:24:51;11.27;;;7.90;;
75506;SDS011;64086;43.220;27.878;2023-03-03T05:27:17;10.95;;;7.40;;
75506;SDS011;64086;43.220;27.878;2023-03-03T05:29:43;13.23;;;8.48;;
75506;SDS011;64086;43.220;27.878;2023-03-03T05:32:09;11.13;;;7.97;;
75506;SDS011;64086;43.220;27.878;2023-03-03T05:34:34;13.88;;;7.80;;
75506;SDS011;64086;43.220;27.878;2023-03-03T05:37:00;12.07;;;8.18;;
75506;SDS011;64086;43.220;27.878;2023-03-03T05:39:25;13.35;;;8.68;;
75506;SDS011;64086;43.220;27.878;2023-03-03T05:41:51;11.85;;;8.82;;
75506;SDS011;64086;43.220;27.878;2023-03-03T05:44:16;13.93;;;8.95;;
75506;SDS011;64086;43.220;27.878;2023-03-03T05:46:41;14.48;;;9.18;;
75506;SDS011;64086;43.220;27.878;2023-03-03T05:49:07;16.80;;;10.00;;
75506;SDS011;64086;43.220;27.878;2023-03-03T05:51:33;15.70;;;9.45;;
75506;SDS011;64086;43.220;27.878;2023-03-03T05:53:58;13.73;;;9.07;;
75506;SDS011;64086;43.220;27.878;2023-03-03T05:56:24;17.88;;;10.57;;
75506;SDS011;64086;43.220;27.878;2023-03-03T05:58:49;15.50;;;10.07;;
75506;SDS011;64086;43.220;27.878;2023-03-03T06:01:15;18.20;;;10.13;;
75506;SDS011;64086;43.220;27.878;2023-03-03T06:03:40;15.88;;;10.35;;
75506;SDS011;64086;43.220;27.878;2023-03-03T06:06:06;14.80;;;9.90;;
75506;SDS011;64086;43.220;27.878;2023-03-03T06:08:33;14.63;;;10.07;;
75506;SDS011;64086;43.220;27.878;2023-03-03T06:10:58;11.90;;;8.88;;
75506;SDS011;64086;43.220;27.878;2023-03-03T06:13:24;13.52;;;9.10;;
75506;SDS011;64086;43.220;27.878;2023-03-03T06:15:49;14.18;;;9.43;;
75506;SDS011;64086;43.220;27.878;2023-03-03T06:18:15;12.82;;;9.38;;
75506;SDS011;64086;43.220;27.878;2023-03-03T06:20:40;15.45;;;9.95;;
75506;SDS011;64086;43.220;27.878;2023-03-03T06:23:06;17.60;;;11.00;;
75506;SDS011;64086;43.220;27.878;2023-03-03T06:25:31;15.55;;;10.27;;
75506;SDS011;64086;43.220;27.878;2023-03-03T06:27:59;16.25;;;11.13;;
75506;SDS011;64086;43.220;27.878;2023-03-03T06:30:25;18.80;;;12.10;;
75506;SDS011;64086;43.220;27.878;2023-03-03T06:32:52;17.17;;;11.90;;
75506;SDS011;64086;43.220;27.878;2023-03-03T06:35:18;17.15;;;11.77;;
75506;SDS011;64086;43.220;27.878;2023-03-03T06:37:44;16.02;;;10.98;;
75506;SDS011;64086;43.220;27.878;2023-03-03T06:40:09;18.45;;;11.10;;
75506;SDS011;64086;43.220;27.878;2023-03-03T06:42:35;15.95;;;10.27;;
75506;SDS011;64086;43.220;27.878;2023-03-03T06:45:01;15.30;;;10.48;;
75506;SDS011;64086;43.220;27.878;2023-03-03T06:47:26;14.98;;;10.02;;
75506;SDS011;64086;43.220;27.878;2023-03-03T06:49:52;18.95;;;10.52;;
75506;SDS011;64086;43.220;27.878;2023-03-03T06:52:22;18.15;;;13.68;;
75506;SDS011;64086;43.220;27.878;2023-03-03T06:54:48;16.80;;;11.63;;
75506;SDS011;64086;43.220;27.878;2023-03-03T06:57:26;19.50;;;13.27;;
75506;SDS011;64086;43.220;27.878;2023-03-03T06:59:54;18.83;;;13.80;;
75506;SDS011;64086;43.220;27.878;2023-03-03T07:02:22;19.20;;;13.40;;
75506;SDS011;64086;43.220;27.878;2023-03-03T07:04:47;19.17;;;13.90;;
75506;SDS011;64086;43.220;27.878;2023-03-03T07:07:20;20.73;;;14.20;;
75506;SDS011;64086;43.220;27.878;2023-03-03T07:09:50;15.60;;;11.93;;
75506;SDS011;64086;43.220;27.878;2023-03-03T07:12:21;18.92;;;11.88;;
75506;SDS011;64086;43.220;27.878;2023-03-03T07:14:56;16.35;;;11.57;;
75506;SDS011;64086;43.220;27.878;2023-03-03T07:17:38;15.85;;;11.82;;
75506;SDS011;64086;43.220;27.878;2023-03-03T07:20:31;18.42;;;12.27;;
75506;SDS011;64086;43.220;27.878;2023-03-03T07:22:57;18.70;;;11.77;;
75506;SDS011;64086;43.220;27.878;2023-03-03T07:25:30;15.60;;;11.90;;
75506;SDS011;64086;43.220;27.878;2023-03-03T07:27:58;18.45;;;12.85;;
75506;SDS011;64086;43.220;27.878;2023-03-03T07:30:45;31.52;;;16.98;;
75506;SDS011;64086;43.220;27.878;2023-03-03T07:35:52;20.40;;;12.73;;
75506;SDS011;64086;43.220;27.878;2023-03-03T07:41:09;20.77;;;13.07;;
75506;SDS011;64086;43.220;27.878;2023-03-03T07:43:39;20.43;;;13.30;;
75506;SDS011;64086;43.220;27.878;2023-03-03T07:46:42;20.20;;;13.52;;
75506;SDS011;64086;43.220;27.878;2023-03-03T07:52:01;18.92;;;13.77;;
75506;SDS011;64086;43.220;27.878;2023-03-03T07:54:37;21.45;;;14.48;;
75506;SDS011;64086;43.220;27.878;2023-03-03T07:59:36;20.23;;;14.43;;
75506;SDS011;64086;43.220;27.878;2023-03-03T08:02:02;19.48;;;14.02;;
75506;SDS011;64086;43.220;27.878;2023-03-03T08:04:41;19.95;;;14.18;;
75506;SDS011;64086;43.220;27.878;2023-03-03T08:07:18;18.60;;;14.52;;
75506;SDS011;64086;43.220;27.878;2023-03-03T08:09:48;17.33;;;13.98;;
75506;SDS011;64086;43.220;27.878;2023-03-03T08:14:44;18.42;;;14.38;;
75506;SDS011;64086;43.220;27.878;2023-03-03T08:17:16;18.88;;;14.07;;
75506;SDS011;64086;43.220;27.878;2023-03-03T08:19:44;18.73;;;14.50;;
75506;SDS011;64086;43.220;27.878;2023-03-03T08:22:17;22.15;;;14.60;;
75506;SDS011;64086;43.220;27.878;2023-03-03T08:27:09;19.42;;;13.85;;
75506;SDS011;64086;43.220;27.878;2023-03-03T08:29:34;18.40;;;14.27;;
75506;SDS011;64086;43.220;27.878;2023-03-03T08:32:00;19.38;;;13.77;;
75506;SDS011;64086;43.220;27.878;2023-03-03T08:34:25;18.55;;;14.15;;
75506;SDS011;64086;43.220;27.878;2023-03-03T08:36:51;18.17;;;12.02;;
75506;SDS011;64086;43.220;27.878;2023-03-03T08:39:16;13.98;;;10.70;;
75506;SDS011;64086;43.220;27.878;2023-03-03T08:41:41;14.48;;;11.27;;
75506;SDS011;64086;43.220;27.878;2023-03-03T08:44:08;16.08;;;11.68;;
75506;SDS011;64086;43.220;27.878;2023-03-03T08:46:35;19.00;;;11.63;;
75506;SDS011;64086;43.220;27.878;2023-03-03T08:49:00;16.83;;;13.60;;
75506;SDS011;64086;43.220;27.878;2023-03-03T08:51:26;16.92;;;11.93;;
75506;SDS011;64086;43.220;27.878;2023-03-03T08:53:51;14.95;;;11.50;;
75506;SDS011;64086;43.220;27.878;2023-03-03T08:56:17;11.82;;;9.75;;
75506;SDS011;64086;43.220;27.878;2023-03-03T08:58:42;15.15;;;11.23;;
75506;SDS011;64086;43.220;27.878;2023-03-03T09:01:12;14.23;;;11.93;;
75506;SDS011;64086;43.220;27.878;2023-03-03T09:03:39;16.58;;;13.85;;
75506;SDS011;64086;43.220;27.878;2023-03-03T09:06:05;13.63;;;11.60;;
75506;SDS011;64086;43.220;27.878;2023-03-03T09:08:30;15.35;;;11.50;;
75506;SDS011;64086;43.220;27.878;2023-03-03T09:10:56;14.32;;;10.73;;
75506;SDS011;64086;43.220;27.878;2023-03-03T09:13:21;12.95;;;10.82;;
75506;SDS011;64086;43.220;27.878;2023-03-03T09:15:47;11.02;;;9.85;;
75506;SDS011;64086;43.220;27.878;2023-03-03T09:18:18;12.18;;;10.80;;
75506;SDS011;64086;43.220;27.878;2023-03-03T09:20:48;11.88;;;9.93;;
75506;SDS011;64086;43.220;27.878;2023-03-03T09:29:10;14.65;;;9.80;;
75506;SDS011;64086;43.220;27.878;2023-03-03T09:31:41;13.70;;;10.55;;
75506;SDS011;64086;43.220;27.878;2023-03-03T09:34:13;11.57;;;10.18;;
75506;SDS011;64086;43.220;27.878;2023-03-03T09:37:22;13.60;;;10.48;;
75506;SDS011;64086;43.220;27.878;2023-03-03T09:39:52;11.00;;;9.75;;
75506;SDS011;64086;43.220;27.878;2023-03-03T09:42:34;14.80;;;11.32;;
75506;SDS011;64086;43.220;27.878;2023-03-03T09:50:40;13.90;;;10.80;;
75506;SDS011;64086;43.220;27.878;2023-03-03T09:53:37;14.50;;;11.25;;
75506;SDS011;64086;43.220;27.878;2023-03-03T09:58:57;12.57;;;9.10;;
75506;SDS011;64086;43.220;27.878;2023-03-03T10:07:18;12.07;;;9.32;;
75506;SDS011;64086;43.220;27.878;2023-03-03T10:17:41;12.57;;;9.95;;
75506;SDS011;64086;43.220;27.878;2023-03-03T10:25:24;11.20;;;9.00;;
75506;SDS011;64086;43.220;27.878;2023-03-03T10:28:04;13.07;;;8.70;;
75506;SDS011;64086;43.220;27.878;2023-03-03T10:33:21;11.93;;;9.57;;
75506;SDS011;64086;43.220;27.878;2023-03-03T10:55:59;11.48;;;8.98;;
75506;SDS011;64086;43.220;27.878;2023-03-03T11:09:18;9.90;;;8.32;;
75506;SDS011;64086;43.220;27.878;2023-03-03T11:12:36;10.20;;;8.15;;
75506;SDS011;64086;43.220;27.878;2023-03-03T11:14:54;11.15;;;8.23;;
75506;SDS011;64086;43.220;27.878;2023-03-03T11:25:58;10.05;;;7.60;;
75506;SDS011;64086;43.220;27.878;2023-03-03T11:31:16;10.00;;;7.57;;
75506;SDS011;64086;43.220;27.878;2023-03-03T11:36:36;9.18;;;6.95;;
75506;SDS011;64086;43.220;27.878;2023-03-03T11:39:07;10.13;;;7.93;;
75506;SDS011;64086;43.220;27.878;2023-03-03T11:41:35;9.13;;;7.03;;
75506;SDS011;64086;43.220;27.878;2023-03-03T11:55:23;9.55;;;7.82;;
75506;SDS011;64086;43.220;27.878;2023-03-03T12:06:09;10.75;;;7.80;;
75506;SDS011;64086;43.220;27.878;2023-03-03T12:14:23;9.43;;;6.95;;
75506;SDS011;64086;43.220;27.878;2023-03-03T12:22:12;9.05;;;6.93;;
75506;SDS011;64086;43.220;27.878;2023-03-03T12:27:40;10.10;;;8.13;;
75506;SDS011;64086;43.220;27.878;2023-03-03T12:33:44;11.77;;;7.40;;
75506;SDS011;64086;43.220;27.878;2023-03-03T12:44:34;8.73;;;6.50;;
75506;SDS011;64086;43.220;27.878;2023-03-03T12:53:17;11.02;;;7.10;;
75506;SDS011;64086;43.220;27.878;2023-03-03T13:00:48;9.98;;;7.63;;
75506;SDS011;64086;43.220;27.878;2023-03-03T13:13:52;9.85;;;7.88;;
75506;SDS011;64086;43.220;27.878;2023-03-03T13:16:21;10.60;;;7.38;;
75506;SDS011;64086;43.220;27.878;2023-03-03T13:26:36;10.40;;;7.57;;
75506;SDS011;64086;43.220;27.878;2023-03-03T13:29:14;9.30;;;7.82;;
75506;SDS011;64086;43.220;27.878;2023-03-03T13:31:53;11.15;;;7.65;;
75506;SDS011;64086;43.220;27.878;2023-03-03T13:37:01;8.48;;;6.55;;
75506;SDS011;64086;43.220;27.878;2023-03-03T13:39:31;9.98;;;6.93;;
75506;SDS011;64086;43.220;27.878;2023-03-03T13:44:37;8.93;;;7.00;;
75506;SDS011;64086;43.220;27.878;2023-03-03T13:47:20;9.70;;;7.72;;
75506;SDS011;64086;43.220;27.878;2023-03-03T13:55:26;9.07;;;6.78;;
75506;SDS011;64086;43.220;27.878;2023-03-03T14:00:59;8.70;;;5.95;;
75506;SDS011;64086;43.220;27.878;2023-03-03T14:06:27;12.40;;;9.32;;
75506;SDS011;64086;43.220;27.878;2023-03-03T14:25:15;10.43;;;8.40;;
75506;SDS011;64086;43.220;27.878;2023-03-03T14:43:35;12.07;;;8.63;;
75506;SDS011;64086;43.220;27.878;2023-03-03T14:46:47;12.02;;;8.88;;
75506;SDS011;64086;43.220;27.878;2023-03-03T14:48:51;14.30;;;9.23;;
75506;SDS011;64086;43.220;27.878;2023-03-03T14:54:15;12.70;;;9.55;;
75506;SDS011;64086;43.220;27.878;2023-03-03T15:02:34;13.60;;;10.60;;
75506;SDS011;64086;43.220;27.878;2023-03-03T15:05:26;14.23;;;10.07;;
75506;SDS011;64086;43.220;27.878;2023-03-03T15:13:01;17.63;;;12.82;;
75506;SDS011;64086;43.220;27.878;2023-03-03T15:18:23;14.65;;;9.57;;
75506;SDS011;64086;43.220;27.878;2023-03-03T15:21:01;12.55;;;10.00;;
75506;SDS011;64086;43.220;27.878;2023-03-03T15:29:03;16.92;;;12.80;;
75506;SDS011;64086;43.220;27.878;2023-03-03T15:42:29;15.35;;;11.52;;
75506;SDS011;64086;43.220;27.878;2023-03-03T15:50:51;15.95;;;11.23;;
75506;SDS011;64086;43.220;27.878;2023-03-03T15:53:34;17.38;;;12.52;;
75506;SDS011;64086;43.220;27.878;2023-03-03T15:56:19;18.02;;;12.70;;
75506;SDS011;64086;43.220;27.878;2023-03-03T15:58:57;19.55;;;13.27;;
75506;SDS011;64086;43.220;27.878;2023-03-03T16:04:37;21.45;;;13.40;;
75506;SDS011;64086;43.220;27.878;2023-03-03T16:07:16;16.83;;;12.63;;
75506;SDS011;64086;43.220;27.878;2023-03-03T16:12:56;19.30;;;12.73;;
75506;SDS011;64086;43.220;27.878;2023-03-03T16:15:42;18.92;;;13.48;;
75506;SDS011;64086;43.220;27.878;2023-03-03T16:23:38;19.35;;;13.30;;
75506;SDS011;64086;43.220;27.878;2023-03-03T16:34:13;19.63;;;15.13;;
75506;SDS011;64086;43.220;27.878;2023-03-03T16:36:56;23.55;;;17.77;;
75506;SDS011;64086;43.220;27.878;2023-03-03T16:45:03;15.77;;;10.80;;
75506;SDS011;64086;43.220;27.878;2023-03-03T16:53:02;14.95;;;11.50;;
75506;SDS011;64086;43.220;27.878;2023-03-03T17:01:26;17.40;;;13.52;;
75506;SDS011;64086;43.220;27.878;2023-03-03T17:06:36;17.45;;;12.10;;
75506;SDS011;64086;43.220;27.878;2023-03-03T17:09:39;15.98;;;11.77;;
75506;SDS011;64086;43.220;27.878;2023-03-03T17:20:16;16.50;;;11.50;;
75506;SDS011;64086;43.220;27.878;2023-03-03T17:25:57;16.90;;;12.13;;
75506;SDS011;64086;43.220;27.878;2023-03-03T17:28:40;15.98;;;11.57;;
75506;SDS011;64086;43.220;27.878;2023-03-03T17:42:14;16.27;;;12.85;;
75506;SDS011;64086;43.220;27.878;2023-03-03T17:45:12;15.83;;;11.67;;
75506;SDS011;64086;43.220;27.878;2023-03-03T17:50:22;15.52;;;11.68;;
75506;SDS011;64086;43.220;27.878;2023-03-03T17:53:14;18.48;;;13.45;;
75506;SDS011;64086;43.220;27.878;2023-03-03T18:20:45;15.93;;;11.23;;
75506;SDS011;64086;43.220;27.878;2023-03-03T18:23:44;14.43;;;10.43;;
75506;SDS011;64086;43.220;27.878;2023-03-03T18:29:08;15.68;;;11.70;;
75506;SDS011;64086;43.220;27.878;2023-03-03T18:31:44;15.90;;;11.77;;
75506;SDS011;64086;43.220;27.878;2023-03-03T18:36:56;17.98;;;12.05;;
75506;SDS011;64086;43.220;27.878;2023-03-03T18:44:41;24.77;;;16.13;;
75506;SDS011;64086;43.220;27.878;2023-03-03T18:47:09;24.48;;;15.60;;
75506;SDS011;64086;43.220;27.878;2023-03-03T19:03:37;22.83;;;16.83;;
75506;SDS011;64086;43.220;27.878;2023-03-03T19:09:02;17.15;;;12.90;;
75506;SDS011;64086;43.220;27.878;2023-03-03T19:11:33;17.27;;;12.50;;
75506;SDS011;64086;43.220;27.878;2023-03-03T19:16:49;15.98;;;12.48;;
75506;SDS011;64086;43.220;27.878;2023-03-03T19:19:17;15.75;;;11.50;;
75506;SDS011;64086;43.220;27.878;2023-03-03T19:21:47;14.18;;;11.63;;
75506;SDS011;64086;43.220;27.878;2023-03-03T19:29:36;13.45;;;9.73;;
75506;SDS011;64086;43.220;27.878;2023-03-03T19:32:25;14.77;;;10.40;;
75506;SDS011;64086;43.220;27.878;2023-03-03T19:34:56;16.83;;;11.43;;
75506;SDS011;64086;43.220;27.878;2023-03-03T19:39:56;15.98;;;10.57;;
75506;SDS011;64086;43.220;27.878;2023-03-03T19:45:19;16.23;;;10.15;;
75506;SDS011;64086;43.220;27.878;2023-03-03T20:01:43;32.35;;;21.75;;
75506;SDS011;64086;43.220;27.878;2023-03-03T20:10:52;14.57;;;10.70;;
75506;SDS011;64086;43.220;27.878;2023-03-03T20:19:01;15.05;;;11.57;;
75506;SDS011;64086;43.220;27.878;2023-03-03T20:27:36;16.52;;;11.55;;
75506;SDS011;64086;43.220;27.878;2023-03-03T20:30:21;16.27;;;10.80;;
75506;SDS011;64086;43.220;27.878;2023-03-03T20:33:14;17.17;;;11.23;;
75506;SDS011;64086;43.220;27.878;2023-03-03T20:49:40;15.05;;;11.00;;
75506;SDS011;64086;43.220;27.878;2023-03-03T20:55:18;15.77;;;12.00;;
75506;SDS011;64086;43.220;27.878;2023-03-03T21:00:51;16.48;;;12.38;;
75506;SDS011;64086;43.220;27.878;2023-03-03T21:06:08;16.75;;;12.80;;
75506;SDS011;64086;43.220;27.878;2023-03-03T21:11:38;16.23;;;12.07;;
75506;SDS011;64086;43.220;27.878;2023-03-03T21:14:10;16.92;;;12.27;;
75506;SDS011;64086;43.220;27.878;2023-03-03T21:16:41;15.80;;;11.68;;
75506;SDS011;64086;43.220;27.878;2023-03-03T21:19:09;18.17;;;11.55;;
75506;SDS011;64086;43.220;27.878;2023-03-03T21:21:42;15.50;;;11.30;;
75506;SDS011;64086;43.220;27.878;2023-03-03T21:24:11;16.00;;;11.88;;
75506;SDS011;64086;43.220;27.878;2023-03-03T21:26:46;15.68;;;11.82;;
75506;SDS011;64086;43.220;27.878;2023-03-03T21:29:17;16.15;;;11.88;;
75506;SDS011;64086;43.220;27.878;2023-03-03T21:31:43;16.02;;;11.27;;
75506;SDS011;64086;43.220;27.878;2023-03-03T21:34:21;16.45;;;12.98;;
75506;SDS011;64086;43.220;27.878;2023-03-03T21:36:47;16.42;;;12.35;;
75506;SDS011;64086;43.220;27.878;2023-03-03T21:41:55;20.73;;;14.27;;
75506;SDS011;64086;43.220;27.878;2023-03-03T21:44:27;21.35;;;14.32;;
75506;SDS011;64086;43.220;27.878;2023-03-03T21:47:20;17.88;;;11.60;;
75506;SDS011;64086;43.220;27.878;2023-03-03T21:49:47;18.17;;;11.93;;
75506;SDS011;64086;43.220;27.878;2023-03-03T21:52:17;17.70;;;12.27;;
75506;SDS011;64086;43.220;27.878;2023-03-03T21:54:44;16.85;;;11.65;;
75506;SDS011;64086;43.220;27.878;2023-03-03T21:57:10;16.20;;;11.45;;
75506;SDS011;64086;43.220;27.878;2023-03-03T21:59:36;15.73;;;11.95;;
75506;SDS011;64086;43.220;27.878;2023-03-03T22:02:02;15.82;;;12.27;;
75506;SDS011;64086;43.220;27.878;2023-03-03T22:04:28;15.57;;;11.50;;
75506;SDS011;64086;43.220;27.878;2023-03-03T22:06:53;17.23;;;12.77;;
75506;SDS011;64086;43.220;27.878;2023-03-03T22:09:19;18.10;;;12.98;;
75506;SDS011;64086;43.220;27.878;2023-03-03T22:11:45;18.83;;;12.60;;
75506;SDS011;64086;43.220;27.878;2023-03-03T22:14:10;17.40;;;12.70;;
75506;SDS011;64086;43.220;27.878;2023-03-03T22:16:36;17.98;;;13.00;;
75506;SDS011;64086;43.220;27.878;2023-03-03T22:19:02;17.15;;;12.77;;
75506;SDS011;64086;43.220;27.878;2023-03-03T22:21:28;18.65;;;13.93;;
75506;SDS011;64086;43.220;27.878;2023-03-03T22:23:54;19.70;;;14.05;;